Time;durP1;ratioP1;P1;durP2;ratioP2;P2;SDS_P1;SDS_P2;PMS_P1;PMS_P2;Temp;Humidity;BMP_temperature;BMP_pressure;BME280_temperature;BME280_humidity;BME280_pressure;Samples;Min_cycle;Max_cycle;Signal;HPM_P1;HPM_P2
2021/03/25 00:01:51;;;;;;;14.00;6.47;;;;;;;1.18;49.27;100716.62;1782949;79;21148;-58
2021/03/25 00:04:20;;;;;;;11.85;6.08;;;;;;;1.16;49.34;100720.59;1792328;79;21536;-58
2021/03/25 00:06:51;;;;;;;13.60;6.90;;;;;;;1.18;49.35;100711.01;1797057;79;21167;-59
2021/03/25 00:09:24;;;;;;;14.90;6.85;;;;;;;1.19;49.47;100714.44;1805189;78;21161;-58
2021/03/25 00:11:52;;;;;;;14.73;7.37;;;;;;;1.21;49.38;100710.91;1745262;80;21199;-58
2021/03/25 00:14:21;;;;;;;12.65;6.83;;;;;;;1.20;49.39;100711.80;1790015;79;21167;-58
2021/03/25 00:16:48;;;;;;;14.87;6.80;;;;;;;1.22;49.34;100712.58;1791508;78;21371;-60
2021/03/25 00:19:18;;;;;;;13.05;6.70;;;;;;;1.20;49.45;100713.09;1805077;78;21638;-58
2021/03/25 00:21:45;;;;;;;12.30;6.35;;;;;;;1.25;49.50;100715.06;1793944;78;21122;-58
2021/03/25 00:24:15;;;;;;;12.55;6.85;;;;;;;1.25;49.18;100715.06;1769254;78;21164;-58
2021/03/25 00:26:43;;;;;;;14.28;5.62;;;;;;;1.26;49.15;100712.88;1768154;78;21214;-57
2021/03/25 00:29:14;;;;;;;15.15;6.47;;;;;;;1.26;49.09;100710.28;1776165;78;21696;-58
2021/03/25 00:31:43;;;;;;;10.88;5.35;;;;;;;1.29;49.12;100711.91;1755247;78;21210;-58
2021/03/25 00:34:10;;;;;;;12.65;7.08;;;;;;;1.28;48.89;100712.83;1809540;78;21108;-58
2021/03/25 00:36:40;;;;;;;12.33;7.33;;;;;;;1.27;48.82;100710.66;1782741;79;21601;-58
2021/03/25 00:39:10;;;;;;;13.68;7.12;;;;;;;1.25;48.99;100708.58;1756092;79;21490;-58
2021/03/25 00:41:37;;;;;;;13.45;6.87;;;;;;;1.24;48.83;100710.77;1775395;80;21209;-58
2021/03/25 00:44:09;;;;;;;14.28;6.95;;;;;;;1.24;49.02;100708.17;1792973;78;21120;-58
2021/03/25 00:46:36;;;;;;;12.20;5.90;;;;;;;1.25;49.06;100711.17;1786430;78;21190;-58
2021/03/25 00:49:04;;;;;;;11.78;7.25;;;;;;;1.23;49.36;100709.09;1812989;78;21711;-58
2021/03/25 00:51:33;;;;;;;14.40;6.75;;;;;;;1.24;49.41;100712.52;1788699;80;21136;-58
2021/03/25 00:54:03;;;;;;;14.98;6.65;;;;;;;1.22;49.43;100706.55;1797162;78;21195;-58
2021/03/25 00:56:30;;;;;;;16.15;7.90;;;;;;;1.16;49.53;100715.41;1749894;80;21138;-58
2021/03/25 00:58:59;;;;;;;14.18;7.12;;;;;;;1.14;49.61;100705.52;1783186;79;21120;-58
2021/03/25 01:01:27;;;;;;;13.25;7.10;;;;;;;1.13;49.69;100702.98;1749419;80;21195;-58
2021/03/25 01:03:54;;;;;;;12.55;6.42;;;;;;;1.11;49.68;100706.49;1777873;80;21193;-58
2021/03/25 01:06:22;;;;;;;14.68;8.13;;;;;;;1.10;49.78;100703.95;1786200;78;21179;-58
2021/03/25 01:08:51;;;;;;;15.83;8.45;;;;;;;1.11;49.60;100700.47;1761070;80;21184;-58
2021/03/25 01:11:22;;;;;;;14.18;7.95;;;;;;;1.11;49.63;100704.36;1797433;78;21340;-58
2021/03/25 01:13:54;;;;;;;15.50;8.88;;;;;;;1.13;49.47;100705.14;1803224;79;21753;-58
2021/03/25 01:16:34;;;;;;;14.33;7.33;;;;;;;1.11;49.49;100706.95;1750641;80;21161;-58
2021/03/25 01:19:21;;;;;;;17.87;8.63;;;;;;;1.13;49.40;100712.05;1803814;78;21147;-58
2021/03/25 01:21:48;;;;;;;14.78;6.53;;;;;;;1.11;49.42;100713.43;1771993;80;21195;-58
2021/03/25 01:24:16;;;;;;;16.55;7.25;;;;;;;1.08;49.43;100713.08;1804089;78;21104;-57
2021/03/25 01:26:44;;;;;;;15.48;7.35;;;;;;;1.04;49.60;100710.20;1782028;80;21144;-57
2021/03/25 01:29:15;;;;;;;14.40;7.20;;;;;;;1.03;49.76;100707.67;1808276;78;21124;-57
2021/03/25 01:31:42;;;;;;;12.40;7.28;;;;;;;1.03;49.86;100715.45;1812378;78;21534;-57
2021/03/25 01:34:16;;;;;;;17.27;7.50;;;;;;;1.00;49.78;100709.06;1794069;78;21116;-57
2021/03/25 01:36:46;;;;;;;13.30;6.57;;;;;;;1.00;49.88;100714.25;1757874;80;21135;-58
2021/03/25 01:39:14;;;;;;;12.10;7.75;;;;;;;0.97;49.90;100710.01;1779028;78;21183;-57
2021/03/25 01:41:42;;;;;;;17.30;8.13;;;;;;;0.97;49.95;100705.28;1771525;78;21160;-58
2021/03/25 01:44:35;;;;;;;13.70;7.20;;;;;;;0.96;50.06;100710.92;1784147;78;21374;-57
2021/03/25 01:47:06;;;;;;;19.32;8.25;;;;;;;0.95;49.95;100706.62;1756603;80;21212;-57
2021/03/25 01:49:35;;;;;;;13.32;6.83;;;;;;;0.92;50.06;100711.48;1759951;80;21220;-57
2021/03/25 01:52:28;;;;;;;14.93;7.28;;;;;;;0.92;50.04;100710.61;1769242;79;21195;-58
2021/03/25 01:55:27;;;;;;;10.72;6.67;;;;;;;0.92;49.77;100709.32;1742979;80;21133;-57
2021/03/25 01:58:15;;;;;;;17.50;7.65;;;;;;;0.88;49.85;100709.88;1794104;79;21254;-57
2021/03/25 02:00:53;;;;;;;12.90;6.45;;;;;;;0.83;50.06;100716.97;1785632;79;21200;-58
2021/03/25 02:03:48;;;;;;;11.65;6.45;;;;;;;0.80;50.03;100717.52;1805863;78;21580;-58
2021/03/25 02:06:55;;;;;;;15.80;7.53;;;;;;;0.76;50.17;100719.38;1773508;78;21199;-57
2021/03/25 02:09:35;;;;;;;14.43;6.97;;;;;;;0.78;50.27;100718.03;1780420;79;21191;-58
2021/03/25 02:12:53;;;;;;;14.33;7.85;;;;;;;0.81;50.41;100709.70;1839578;76;22886;-58
2021/03/25 02:15:51;;;;;;;11.85;6.20;;;;;;;0.77;50.27;100715.88;1799848;78;21419;-57
2021/03/25 02:18:45;;;;;;;13.65;7.08;;;;;;;0.72;50.31;100712.17;1799988;78;21195;-58
2021/03/25 02:21:47;;;;;;;10.15;6.62;;;;;;;0.72;50.48;100708.70;1787643;79;21144;-58
2021/03/25 02:24:37;;;;;;;16.67;7.08;;;;;;;0.70;50.47;100706.62;1801923;78;21005;-58
2021/03/25 02:27:49;;;;;;;21.68;8.08;;;;;;;0.71;50.78;100704.44;1791741;79;21214;-57
2021/03/25 02:30:22;;;;;;;15.85;8.60;;;;;;;0.71;51.05;100705.74;1791776;79;21547;-57
2021/03/25 02:32:58;;;;;;;11.68;7.25;;;;;;;0.72;51.81;100707.41;1785723;79;22682;-57
2021/03/25 02:35:36;;;;;;;12.88;6.90;;;;;;;0.75;51.89;100702.13;1810047;78;21219;-58
2021/03/25 02:38:20;;;;;;;11.73;6.33;;;;;;;0.76;51.87;100699.08;1758837;80;21122;-58
2021/03/25 02:40:53;;;;;;;16.48;6.85;;;;;;;0.79;51.80;100699.85;1774874;80;26599;-58
2021/03/25 02:43:39;;;;;;;17.07;6.03;;;;;;;0.78;52.02;100694.72;1752796;81;21140;-58
2021/03/25 02:46:21;;;;;;;12.25;6.55;;;;;;;0.76;51.89;100706.42;1741636;81;21236;-58
2021/03/25 02:48:54;;;;;;;19.37;6.20;;;;;;;0.72;52.00;100698.34;1752281;81;21129;-59
2021/03/25 02:51:29;;;;;;;13.00;6.15;;;;;;;0.71;52.29;100699.27;1716453;81;21159;-59
2021/03/25 02:53:58;;;;;;;14.40;5.65;;;;;;;0.73;52.36;100703.48;1782214;79;21092;-59
2021/03/25 02:56:53;;;;;;;14.18;6.22;;;;;;;0.72;52.50;100700.51;1801592;79;21579;-59
2021/03/25 02:59:34;;;;;;;11.50;6.03;;;;;;;0.73;52.56;100702.64;1797646;79;21543;-58
2021/03/25 03:02:13;;;;;;;14.30;6.30;;;;;;;0.70;52.53;100702.74;1792319;79;21194;-59
2021/03/25 03:04:42;;;;;;;12.55;5.87;;;;;;;0.68;52.67;100705.84;1808957;79;21152;-59
2021/03/25 03:07:14;;;;;;;10.85;4.95;;;;;;;0.63;52.34;100705.15;1800081;79;21139;-58
2021/03/25 03:09:49;;;;;;;16.07;6.70;;;;;;;0.63;52.57;100705.15;1806817;79;21139;-58
2021/03/25 03:12:32;;;;;;;16.75;7.37;;;;;;;0.64;52.46;100706.39;1791591;79;21226;-58
2021/03/25 03:15:24;;;;;;;23.50;6.92;;;;;;;0.62;52.50;100710.75;1758239;79;21409;-58
2021/03/25 03:18:02;;;;;;;15.13;5.92;;;;;;;0.64;52.51;100702.94;1790220;79;21152;-57
2021/03/25 03:31:28;;;;;;;14.18;5.58;;;;;;;0.51;52.56;100711.13;1804852;79;22747;-58
2021/03/25 03:34:05;;;;;;;14.10;6.00;;;;;;;0.45;52.71;100706.59;1753453;80;21563;-58
2021/03/25 03:36:32;;;;;;;10.88;5.92;;;;;;;0.47;52.76;100712.56;1772855;80;21157;-58
2021/03/25 03:39:09;;;;;;;10.43;5.47;;;;;;;0.50;52.80;100710.72;1743698;81;21694;-58
2021/03/25 03:41:52;;;;;;;;;;;;;;;0.52;52.86;100708.08;1728972;81;21216;-58
2021/03/25 03:44:31;;;;;;;15.25;6.08;;;;;;;0.49;52.73;100707.75;1730880;81;20306;-58
2021/03/25 03:46:59;;;;;;;15.70;6.53;;;;;;;0.42;52.99;100712.73;1720711;82;21227;-58
2021/03/25 03:49:53;;;;;;;10.58;5.12;;;;;;;0.43;52.99;100709.69;1718844;81;21631;-58
2021/03/25 03:52:30;;;;;;;16.82;6.42;;;;;;;0.44;53.01;100710.94;1741659;81;21175;-58
2021/03/25 03:55:00;;;;;;;9.45;4.72;;;;;;;0.45;52.96;100714.36;1687197;81;21119;-58
2021/03/25 03:58:04;;;;;;;15.98;5.78;;;;;;;0.45;53.02;100712.61;1703715;82;21207;-58
2021/03/25 04:00:47;;;;;;;14.93;5.25;;;;;;;0.49;53.08;100706.91;1758899;79;23432;-58
2021/03/25 04:03:38;;;;;;;17.02;6.65;;;;;;;0.47;52.88;100712.14;1689940;82;21204;-59
2021/03/25 04:06:14;;;;;;;16.65;5.83;;;;;;;0.52;52.74;100709.38;1734327;82;22273;-58
2021/03/25 04:09:16;;;;;;;15.72;5.03;;;;;;;0.52;52.69;100716.72;1721640;82;21053;-59
2021/03/25 04:11:56;;;;;;;12.20;5.05;;;;;;;0.49;52.84;100714.22;1681906;82;21620;-59
2021/03/25 04:14:31;;;;;;;16.50;5.90;;;;;;;0.50;52.96;100708.58;1733605;82;21631;-59
2021/03/25 04:17:11;;;;;;;13.43;6.03;;;;;;;0.55;52.96;100706.69;1753045;79;22767;-60
2021/03/25 04:19:44;;;;;;;18.73;5.92;;;;;;;0.47;53.10;100713.44;1726800;81;21632;-59
2021/03/25 04:22:30;;;;;;;16.52;5.45;;;;;;;0.50;52.82;100712.47;1756399;79;22723;-60
2021/03/25 04:25:19;;;;;;;17.30;5.53;;;;;;;0.49;52.71;100714.22;1738982;82;21117;-60
2021/03/25 04:27:53;;;;;;;13.28;6.37;;;;;;;0.51;52.83;100720.19;1721770;81;21268;-61
2021/03/25 04:30:27;;;;;;;15.05;5.95;;;;;;;0.52;53.00;100718.01;1702429;82;21152;-60
2021/03/25 04:32:56;;;;;;;10.45;4.95;;;;;;;0.54;53.13;100720.09;1730385;81;21057;-61
2021/03/25 04:35:24;;;;;;;12.95;5.22;;;;;;;0.54;53.25;100718.80;1710952;82;21220;-60
2021/03/25 04:37:52;;;;;;;12.93;5.00;;;;;;;0.58;53.22;100716.11;1739609;80;21156;-61
2021/03/25 04:40:27;;;;;;;10.82;5.05;;;;;;;0.58;53.25;100720.00;1729500;81;21366;-60
2021/03/25 04:42:55;;;;;;;11.35;4.65;;;;;;;0.61;52.98;100717.31;1711531;81;21212;-61
2021/03/25 04:46:04;;;;;;;12.07;5.83;;;;;;;0.62;52.93;100717.69;1696401;82;21144;-60
2021/03/25 04:48:36;;;;;;;13.85;6.25;;;;;;;0.65;52.81;100725.36;1703837;83;21205;-60
2021/03/25 04:51:16;;;;;;;12.65;5.37;;;;;;;0.66;52.49;100724.48;1731356;82;21639;-60
2021/03/25 04:53:44;;;;;;;11.22;5.33;;;;;;;0.65;52.67;100724.91;1729905;82;21331;-60
2021/03/25 04:56:18;;;;;;;14.50;5.92;;;;;;;0.69;52.38;100724.34;1726155;82;21646;-59
2021/03/25 04:58:55;;;;;;;14.98;6.25;;;;;;;0.71;52.53;100732.94;1732387;81;21212;-64
2021/03/25 05:01:25;;;;;;;16.30;6.83;;;;;;;0.77;52.44;100737.05;1729843;80;21188;-57
2021/03/25 05:04:05;;;;;;;16.07;6.35;;;;;;;0.80;52.18;100736.50;1736118;82;21242;-58
2021/03/25 05:06:59;;;;;;;13.55;5.92;;;;;;;0.84;52.17;100736.81;1729584;81;22254;-59
2021/03/25 05:09:27;;;;;;;18.40;6.22;;;;;;;0.88;52.50;100736.25;1715725;82;21215;-58
2021/03/25 05:11:56;;;;;;;15.25;7.00;;;;;;;0.93;51.75;100738.23;1729543;82;21180;-57
2021/03/25 05:14:27;;;;;;;14.15;6.00;;;;;;;0.96;51.39;100743.74;1724680;82;21215;-58
2021/03/25 05:17:31;;;;;;;26.30;8.23;;;;;;;0.96;51.14;100751.52;1703416;82;21835;-58
2021/03/25 05:20:19;;;;;;;20.35;7.55;;;;;;;0.98;50.98;100751.04;1732109;82;21211;-58
2021/03/25 05:23:00;;;;;;;30.40;8.63;;;;;;;0.97;50.11;100750.17;1731994;80;21531;-58
2021/03/25 05:25:39;;;;;;;24.12;9.25;;;;;;;0.92;50.14;100747.77;1733157;80;21141;-59
2021/03/25 05:28:27;;;;;;;28.10;9.70;;;;;;;0.92;50.11;100754.23;1734404;82;21580;-58
2021/03/25 05:30:54;;;;;;;21.40;8.70;;;;;;;0.95;49.91;100752.44;1734860;80;21164;-58
2021/03/25 05:33:24;;;;;;;16.73;7.20;;;;;;;0.98;49.65;100754.92;1709659;82;21165;-58
2021/03/25 05:35:59;;;;;;;23.73;9.18;;;;;;;1.03;49.84;100768.11;1735328;82;21155;-58
2021/03/25 05:38:27;;;;;;;19.57;7.00;;;;;;;1.07;50.16;100767.55;1733740;82;21573;-58
2021/03/25 05:41:32;;;;;;;21.62;6.67;;;;;;;1.13;49.79;100763.46;1731780;82;21338;-58
2021/03/25 05:44:39;;;;;;;21.10;6.50;;;;;;;1.20;49.71;100763.63;1724090;82;21639;-58
2021/03/25 05:47:22;;;;;;;13.48;5.80;;;;;;;1.23;50.12;100763.53;1731851;80;21266;-57
2021/03/25 05:50:12;;;;;;;13.88;5.25;;;;;;;1.29;48.46;100767.22;1730266;80;21240;-60
2021/03/25 05:52:48;;;;;;;8.33;4.80;;;;;;;1.35;48.23;100764.84;1702141;82;21181;-59
2021/03/25 05:55:46;;;;;;;14.00;5.40;;;;;;;1.41;48.23;100772.84;1731654;82;21236;-60
2021/03/25 05:58:34;;;;;;;8.20;3.83;;;;;;;1.46;48.07;100772.23;1731278;82;21198;-61
2021/03/25 06:01:21;;;;;;;18.87;5.22;;;;;;;1.51;47.79;100774.66;1737652;80;21211;-58
2021/03/25 06:04:09;;;;;;;11.75;4.53;;;;;;;1.55;47.62;100771.08;1733348;80;21148;-58
2021/03/25 06:06:57;;;;;;;9.35;4.12;;;;;;;1.62;46.87;100771.23;1732588;80;22081;-62
2021/03/25 06:09:44;;;;;;;9.45;4.15;;;;;;;1.71;46.63;100774.77;1702497;82;21239;-59
2021/03/25 06:12:32;;;;;;;8.85;3.58;;;;;;;1.75;46.58;100769.02;1729876;82;21221;-59
2021/03/25 06:15:34;;;;;;;8.65;3.95;;;;;;;1.82;46.24;100766.61;1702727;82;21212;-60
2021/03/25 06:18:54;;;;;;;7.08;3.92;;;;;;;1.83;46.43;100762.66;1734197;82;21179;-62
2021/03/25 06:21:55;;;;;;;7.58;3.92;;;;;;;1.89;45.95;100765.92;1728616;80;21160;-61
2021/03/25 06:25:01;;;;;;;8.98;4.03;;;;;;;1.90;45.38;100759.81;1713334;82;21543;-60
2021/03/25 06:27:57;;;;;;;7.97;4.03;;;;;;;1.91;45.90;100762.36;1717842;82;21563;-60
2021/03/25 06:30:38;;;;;;;8.08;4.17;;;;;;;2.02;46.00;100762.80;1690592;82;21923;-60
2021/03/25 06:33:11;;;;;;;9.90;4.00;;;;;;;2.12;46.00;100763.30;1699792;82;21195;-63
2021/03/25 06:35:51;;;;;;;9.33;4.90;;;;;;;2.26;46.16;100762.75;1793806;77;22701;-61
2021/03/25 06:38:40;;;;;;;8.50;3.65;;;;;;;2.36;45.93;100758.87;1769153;79;21009;-61
2021/03/25 06:41:19;;;;;;;8.48;3.08;;;;;;;2.45;45.42;100758.95;1769771;80;21748;-61
2021/03/25 06:44:05;;;;;;;7.50;3.08;;;;;;;2.57;44.57;100756.31;1775548;78;21655;-60
2021/03/25 06:46:39;;;;;;;8.13;3.95;;;;;;;2.64;44.51;100755.18;1722167;81;21598;-60
2021/03/25 06:49:25;;;;;;;13.10;4.00;;;;;;;2.73;43.63;100749.59;1686105;83;21157;-61
2021/03/25 06:51:53;;;;;;;13.43;4.37;;;;;;;2.77;44.09;100747.27;1739996;80;21584;-72
2021/03/25 06:54:24;;;;;;;9.58;3.50;;;;;;;2.89;44.21;100746.34;1726332;81;21184;-72
2021/03/25 06:56:56;;;;;;;6.17;3.47;;;;;;;2.94;44.13;100753.48;1712597;81;21554;-64
2021/03/25 06:59:35;;;;;;;7.78;3.92;;;;;;;3.02;44.11;100742.31;1685370;83;21162;-65
2021/03/25 07:02:26;;;;;;;9.18;4.08;;;;;;;3.09;44.10;100743.77;1684326;81;22328;-64
2021/03/25 07:04:57;;;;;;;10.63;4.62;;;;;;;3.14;43.27;100739.20;1735930;81;21235;-59
2021/03/25 07:07:31;;;;;;;8.93;3.90;;;;;;;3.18;43.51;100748.14;1695933;81;22099;-62
2021/03/25 07:10:01;;;;;;;11.65;4.00;;;;;;;3.24;43.12;100749.19;1715118;81;28302;-61
2021/03/25 07:12:35;;;;;;;6.30;3.45;;;;;;;3.27;42.97;100748.59;1740251;80;21169;-61
2021/03/25 07:15:05;;;;;;;9.68;4.08;;;;;;;3.33;43.05;100749.64;1721502;81;21152;-58
2021/03/25 07:17:39;;;;;;;11.05;4.33;;;;;;;3.40;42.80;100748.91;1714356;81;21140;-60
2021/03/25 07:20:28;;;;;;;8.58;4.12;;;;;;;3.48;42.32;100746.81;1707475;81;21125;-60
2021/03/25 07:23:09;;;;;;;7.25;4.03;;;;;;;3.54;41.46;100747.82;1717787;82;21197;-62
2021/03/25 07:25:46;;;;;;;10.32;3.60;;;;;;;3.62;41.73;100749.26;1688803;83;21238;-63
2021/03/25 07:28:20;;;;;;;8.25;3.37;;;;;;;3.63;41.52;100749.19;1714541;81;21198;-62
2021/03/25 07:30:55;;;;;;;7.37;3.50;;;;;;;3.68;41.28;100743.32;1712667;81;21251;-59
2021/03/25 07:33:25;;;;;;;13.75;3.52;;;;;;;3.75;41.11;100741.72;1691836;81;22168;-69
2021/03/25 07:36:08;;;;;;;7.97;3.15;;;;;;;3.80;40.93;100744.52;1674052;83;21694;-63
2021/03/25 07:38:38;;;;;;;8.95;4.20;;;;;;;3.86;40.93;100742.08;1678985;83;21221;-64
2021/03/25 07:41:27;;;;;;;9.60;3.98;;;;;;;3.89;40.98;100741.47;1674883;83;21285;-66
2021/03/25 07:44:05;;;;;;;22.10;4.40;;;;;;;3.97;40.22;100741.13;1665616;83;21306;-63
2021/03/25 07:46:48;;;;;;;9.60;4.28;;;;;;;4.01;40.43;100735.31;1669176;83;21253;-62
2021/03/25 07:49:21;;;;;;;7.00;3.65;;;;;;;4.06;39.75;100738.55;1704559;82;21236;-63
2021/03/25 07:52:00;;;;;;;11.90;4.30;;;;;;;4.08;40.40;100730.19;1739152;80;21215;-59
2021/03/25 07:54:40;;;;;;;18.02;5.08;;;;;;;4.11;39.59;100730.05;1692665;83;22383;-59
2021/03/25 07:57:26;;;;;;;13.20;4.72;;;;;;;4.19;39.42;100728.40;1735881;82;21199;-61
2021/03/25 07:59:57;;;;;;;10.23;4.60;;;;;;;4.23;39.59;100724.72;1735745;80;21445;-60
2021/03/25 08:02:40;;;;;;;10.70;3.92;;;;;;;4.28;39.60;100737.89;1722164;82;21629;-64
2021/03/25 08:05:28;;;;;;;4.03;1.32;;;;;;;4.33;39.96;100736.38;1741346;80;21680;-63
2021/03/25 08:07:59;;;;;;;6.33;2.25;;;;;;;4.39;35.29;100724.83;1739870;81;21160;-57
2021/03/25 08:10:40;;;;;;;5.22;1.98;;;;;;;4.44;33.68;100717.63;1734761;81;21192;-57
2021/03/25 08:13:27;;;;;;;5.97;2.15;;;;;;;4.50;32.89;100728.20;1737093;80;21185;-57
2021/03/25 08:16:07;;;;;;;6.72;2.02;;;;;;;4.58;35.35;100730.81;1669926;82;21613;-58
2021/03/25 08:19:02;;;;;;;6.35;1.70;;;;;;;4.65;33.97;100732.66;1643786;84;21179;-57
2021/03/25 08:21:44;;;;;;;5.58;1.67;;;;;;;4.71;32.63;100723.67;1669122;84;21623;-57
2021/03/25 08:24:43;;;;;;;3.40;1.22;;;;;;;4.76;32.58;100726.92;1680033;83;21484;-57
2021/03/25 08:27:44;;;;;;;5.30;1.82;;;;;;;4.80;32.17;100731.87;1642683;85;21222;-57
2021/03/25 08:30:26;;;;;;;4.62;1.77;;;;;;;4.90;32.52;100731.43;1707455;82;21137;-56
2021/03/25 08:33:30;;;;;;;6.37;1.60;;;;;;;4.98;32.40;100726.20;1706322;82;21153;-57
2021/03/25 08:36:12;;;;;;;3.25;1.32;;;;;;;5.08;31.27;100723.10;1692894;82;21575;-58
2021/03/25 08:39:15;;;;;;;6.20;1.32;;;;;;;5.23;31.17;100722.77;1688298;82;21244;-57
2021/03/25 08:42:24;;;;;;;4.00;1.32;;;;;;;5.23;31.17;100722.77;1722705;82;21255;-56
2021/03/25 08:45:28;;;;;;;4.15;1.42;;;;;;;5.27;31.47;100723.84;1722782;82;21208;-57
2021/03/25 08:48:10;;;;;;;3.55;1.10;;;;;;;5.29;32.09;100727.68;1722724;82;21651;-59
2021/03/25 08:50:57;;;;;;;4.03;1.42;;;;;;;5.31;32.43;100726.69;1692349;82;21645;-58
2021/03/25 08:54:01;;;;;;;3.15;1.05;;;;;;;5.39;32.29;100723.19;1726847;80;21164;-59
2021/03/25 08:56:43;;;;;;;4.58;1.30;;;;;;;5.48;31.83;100719.27;1723266;82;21210;-58
2021/03/25 08:59:36;;;;;;;4.33;1.17;;;;;;;5.56;31.66;100721.02;1724620;82;21522;-58
2021/03/25 09:02:26;;;;;;;4.30;1.45;;;;;;;5.64;31.88;100716.66;1695339;82;21406;-58
2021/03/25 09:05:01;;;;;;;5.25;1.40;;;;;;;5.70;31.32;100712.42;1724834;81;21227;-57
2021/03/25 09:07:29;;;;;;;3.62;1.00;;;;;;;5.75;31.79;100711.71;1723604;82;21173;-57
2021/03/25 09:10:05;;;;;;;3.60;1.27;;;;;;;5.77;31.07;100711.63;1723316;82;21363;-57
2021/03/25 09:12:32;;;;;;;;;;;;;;;5.78;31.53;100710.69;1695384;82;21140;-58
2021/03/25 09:15:05;;;;;;;5.67;1.40;;;;;;;5.82;31.22;100708.77;1724092;82;20581;-58
2021/03/25 09:17:43;;;;;;;4.62;1.27;;;;;;;5.83;32.12;100713.05;1693073;82;21232;-57
2021/03/25 09:20:14;;;;;;;3.35;1.15;;;;;;;5.92;31.58;100718.62;1719646;82;21765;-57
2021/03/25 09:22:52;;;;;;;6.95;1.77;;;;;;;6.04;31.76;100716.30;1727145;82;21343;-56
2021/03/25 09:27:22;;;;;;;4.42;1.52;;;;;;;6.17;30.23;100702.05;1868310;75;22614;-58
2021/03/25 09:30:05;;;;;;;3.47;1.20;;;;;;;6.09;31.20;100711.17;1784567;75;21634;-56
2021/03/25 09:32:39;;;;;;;3.22;1.10;;;;;;;6.17;30.38;100708.59;1846470;76;21195;-55
2021/03/25 09:35:35;;;;;;;3.83;1.35;;;;;;;6.24;30.72;100691.66;1801827;78;21686;-56
2021/03/25 09:38:02;;;;;;;7.42;1.90;;;;;;;6.38;30.32;100706.06;1780099;78;21214;-58
2021/03/25 09:40:45;;;;;;;3.52;1.27;;;;;;;6.38;30.32;100706.06;1773715;79;21173;-58
2021/03/25 09:43:31;;;;;;;4.97;1.95;;;;;;;6.46;30.26;100705.16;1874793;75;23336;-58
2021/03/25 09:46:22;;;;;;;5.17;1.50;;;;;;;6.48;30.33;100703.77;1811747;77;21211;-58
2021/03/25 09:48:50;;;;;;;4.33;1.95;;;;;;;6.55;30.86;100705.56;1850394;76;21186;-58
2021/03/25 09:51:24;;;;;;;5.72;2.15;;;;;;;6.65;31.37;100704.92;1852638;76;21203;-58
2021/03/25 09:53:55;;;;;;;3.40;1.07;;;;;;;6.73;29.87;100703.19;1834093;77;21176;-58
2021/03/25 09:56:28;;;;;;;4.58;1.65;;;;;;;6.81;30.49;100707.97;1840714;77;21622;-58
2021/03/25 09:59:04;;;;;;;4.80;1.87;;;;;;;6.89;29.45;100699.17;1847021;76;21168;-58
2021/03/25 10:01:53;;;;;;;4.95;1.62;;;;;;;6.91;29.39;100693.86;1815669;77;21175;-59
2021/03/25 10:04:34;;;;;;;6.75;2.60;;;;;;;7.01;29.56;100698.47;1848334;76;21219;-58
2021/03/25 10:07:09;;;;;;;8.85;2.75;;;;;;;7.01;29.56;100698.47;1843849;77;21226;-58
2021/03/25 10:09:52;;;;;;;3.95;1.35;;;;;;;7.07;30.42;100698.55;1847310;76;21144;-58
2021/03/25 10:12:48;;;;;;;5.17;1.67;;;;;;;7.15;30.27;100695.48;1843261;77;21137;-56
2021/03/25 10:18:29;;;;;;;5.87;2.17;;;;;;;7.32;28.88;100694.45;1816707;76;22712;-58
2021/03/25 10:21:15;;;;;;;5.25;1.75;;;;;;;7.29;28.85;100702.48;1771775;77;21165;-58
2021/03/25 10:23:59;;;;;;;4.05;1.32;;;;;;;7.26;29.34;100694.34;1782099;77;21146;-57
2021/03/25 10:26:39;;;;;;;4.70;1.52;;;;;;;7.25;29.98;100698.74;1744303;81;21136;-57
2021/03/25 10:50:39;;;;;;;4.53;1.37;;;;;;;7.14;28.33;100678.09;1796773;77;22680;-57
2021/03/25 10:53:11;;;;;;;4.15;1.27;;;;;;;7.27;28.37;100680.33;1769619;80;21155;-58
2021/03/25 10:55:43;;;;;;;3.72;1.32;;;;;;;7.27;28.37;100680.33;1752314;80;22040;-56
2021/03/25 10:58:22;;;;;;;3.37;1.30;;;;;;;7.41;27.01;100670.31;1758648;80;21161;-56
2021/03/25 11:01:23;;;;;;;6.90;1.55;;;;;;;7.54;27.37;100676.94;1764430;80;21139;-57
2021/03/25 11:03:51;;;;;;;3.55;1.27;;;;;;;7.63;27.54;100679.83;1740689;80;21155;-56
2021/03/25 11:06:34;;;;;;;3.52;1.20;;;;;;;7.71;26.27;100656.23;1761906;80;21163;-57
2021/03/25 11:09:09;;;;;;;5.22;1.37;;;;;;;7.77;26.66;100671.09;1761439;80;21194;-56
2021/03/25 11:22:18;;;;;;;3.62;1.27;;;;;;;8.20;27.01;100662.22;1868127;74;22683;-54
2021/03/25 11:24:47;;;;;;;5.92;1.98;;;;;;;8.25;27.37;100656.20;1828203;76;21160;-58
2021/03/25 11:27:18;;;;;;;6.78;1.70;;;;;;;8.42;26.69;100660.80;1801411;78;21199;-58
2021/03/25 11:29:47;;;;;;;5.42;1.62;;;;;;;8.54;27.10;100658.73;1802885;79;21200;-57
2021/03/25 11:32:22;;;;;;;4.97;2.15;;;;;;;8.59;25.98;100659.26;1797899;78;21199;-57
2021/03/25 11:34:54;;;;;;;3.45;1.37;;;;;;;8.61;25.94;100649.49;1801764;77;21255;-58
2021/03/25 11:37:33;;;;;;;5.58;1.98;;;;;;;8.69;26.91;100651.13;1828844;75;22876;-58
2021/03/25 11:40:14;;;;;;;6.03;1.75;;;;;;;8.76;25.77;100638.88;1795985;79;21093;-59
2021/03/25 11:42:45;;;;;;;5.78;2.05;;;;;;;8.85;26.77;100648.77;1793399;79;21250;-58
2021/03/25 11:45:36;;;;;;;3.75;1.25;;;;;;;8.93;27.33;100651.22;1794760;79;21155;-58
2021/03/25 11:48:22;;;;;;;4.90;1.62;;;;;;;9.07;27.14;100645.02;1804243;78;21144;-58
2021/03/25 11:50:51;;;;;;;5.22;2.08;;;;;;;9.22;26.60;100643.59;1778813;79;21212;-57
2021/03/25 11:53:30;;;;;;;4.67;1.60;;;;;;;9.30;26.06;100639.95;1801390;79;21097;-58
2021/03/25 11:55:57;;;;;;;5.15;1.67;;;;;;;9.35;26.43;100626.50;1793172;79;21207;-57
2021/03/25 11:58:25;;;;;;;4.45;1.77;;;;;;;9.42;26.35;100633.81;1794414;79;21175;-57
2021/03/25 12:01:15;;;;;;;4.40;1.70;;;;;;;9.43;25.51;100621.52;1800773;79;21144;-58
2021/03/25 12:03:58;;;;;;;6.12;1.80;;;;;;;9.42;26.35;100642.19;1801449;79;21816;-59
2021/03/25 12:06:32;;;;;;;5.35;1.62;;;;;;;9.39;26.07;100636.66;1802055;79;22410;-58
2021/03/25 12:09:15;;;;;;;4.22;1.75;;;;;;;9.42;25.74;100631.20;1795639;79;22392;-58
2021/03/25 12:11:47;;;;;;;5.10;1.98;;;;;;;9.51;25.56;100620.98;1793265;79;21116;-58
2021/03/25 12:14:18;;;;;;;5.08;1.75;;;;;;;9.54;25.13;100626.84;1804128;78;21180;-59
2021/03/25 12:17:04;;;;;;;5.25;1.67;;;;;;;9.59;25.74;100622.10;1771862;79;21597;-58
2021/03/25 12:19:35;;;;;;;5.47;1.92;;;;;;;9.72;25.60;100619.92;1799031;77;21173;-57
2021/03/25 12:22:09;;;;;;;5.95;1.70;;;;;;;9.85;25.13;100625.48;1769220;79;21219;-56
2021/03/25 12:24:37;;;;;;;3.98;1.57;;;;;;;9.91;24.31;100619.41;1773872;79;21229;-57
2021/03/25 12:27:07;;;;;;;3.67;1.37;;;;;;;9.92;24.99;100619.75;1799311;77;21160;-57
2021/03/25 12:29:35;;;;;;;5.12;1.80;;;;;;;9.92;24.71;100630.27;1779778;79;21197;-58
2021/03/25 12:32:05;;;;;;;4.40;1.60;;;;;;;9.87;24.28;100624.05;1768075;79;21610;-58
2021/03/25 12:34:35;;;;;;;3.62;1.20;;;;;;;9.86;23.77;100623.68;1797719;79;21136;-57
2021/03/25 12:37:04;;;;;;;4.28;1.55;;;;;;;9.88;23.78;100619.14;1795777;77;21172;-58
2021/03/25 12:39:32;;;;;;;3.58;1.30;;;;;;;9.87;24.18;100616.17;1778048;79;21175;-58
2021/03/25 12:42:02;;;;;;;3.67;1.35;;;;;;;9.92;24.94;100616.67;1798814;78;21103;-58
2021/03/25 12:44:31;;;;;;;4.50;1.55;;;;;;;10.04;24.89;100620.18;1797470;79;21125;-57
2021/03/25 12:47:01;;;;;;;4.90;1.77;;;;;;;10.15;23.71;100607.05;1791162;79;21214;-57
2021/03/25 12:49:29;;;;;;;3.75;1.40;;;;;;;10.14;24.07;100609.83;1792309;79;21112;-58
2021/03/25 12:51:57;;;;;;;3.60;1.20;;;;;;;10.11;23.86;100613.99;1807689;79;21114;-57
2021/03/25 12:54:25;;;;;;;5.35;1.22;;;;;;;10.01;22.83;100618.59;1769105;79;21219;-56
2021/03/25 12:56:58;;;;;;;4.00;1.22;;;;;;;10.00;23.83;100613.45;1789708;79;21187;-57
2021/03/25 12:59:27;;;;;;;4.92;1.42;;;;;;;10.08;23.33;100616.36;1760105;79;21378;-55
2021/03/25 13:01:55;;;;;;;3.77;1.15;;;;;;;10.22;23.01;100611.38;1755951;79;21207;-56
2021/03/25 13:04:22;;;;;;;3.45;1.22;;;;;;;10.30;23.30;100609.02;1792526;79;21151;-56
2021/03/25 13:06:52;;;;;;;5.45;1.40;;;;;;;10.35;23.07;100600.33;1798053;79;21205;-56
2021/03/25 13:09:19;;;;;;;4.75;1.75;;;;;;;10.43;23.19;100607.65;1740688;81;21178;-55
2021/03/25 13:11:48;;;;;;;4.37;1.42;;;;;;;10.52;23.32;100608.28;1744168;81;21394;-56